Terminal Aerodrome Forecast
Issued by NWS Charleston, WV

Current Version | Previous Version | Graphics & Text | Print | Product List | Glossary On
Versions: 1 2 3 4 5 6 7 8 9 10 11 12 13 14 15 16 17 18 19 20 21 22
000
FTUS41 KRLX 261700 RRA
TAFPKB
TAF
KPKB 261752Z 2618/2718 32009KT P6SM BKN080
     FM262200 33006KT 6SM -SHSN BR BKN030
     FM270600 34005KT 6SM -SHSN BKN025
     FM271000 33005KT P6SM BKN030
     FM271400 33005KT P6SM SCT030=

USA.gov is the U.S. government's official web portal to all federal, state and local government web resources and services.